Latest Weather Observations for Wattamolla

IDN60901

Issued at 3:21 am EDT Thursday 8 December 2016 (issued every 10 minutes, with the page automatically refreshed every 10 minutes)

About weather observations | Map of Sydney area stations | Latest observations for Sydney area | Other Formats
Station Details ID: 066208 Name: WATTAMOLLA AWS Lat: -34.14 Lon: 151.12 Height: 44.0 m
Data from the previous 72 hours. | See also: Recent months for locations in New South Wales
Date/Time
EDT
Temp
°C
App
Temp
°C
Dew
Point
°C
Rel
Hum
%
Delta-T
°C
Wind Press
QNH
hPa
Press
MSL
hPa
Rain since
9am
mm
Dir  Spd
km/h
Gust
km/h
Spd
kts
Gust
kts
08/03:00am - - - - - N 17 20 9 11 - - -
08/02:30am - - - - - NNW 15 20 8 11 - - -
08/02:00am - - - - - N 17 26 9 14 - - -
08/01:30am - - - - - N 17 24 9 13 - - -
08/01:00am - - - - - N 20 30 11 16 - - -
08/12:30am - - - - - N 22 30 12 16 - - -
08/12:00am - - - - - NNE 22 35 12 19 - - -
 
Date/Time
EDT
Temp
°C
App
Temp
°C
Dew
Point
°C
Rel
Hum
%
Delta-T
°C
Wind Press
QNH
hPa
Press
MSL
hPa
Rain since
9am
mm
Dir  Spd
km/h
Gust
km/h
Spd
kts
Gust
kts
07/11:30pm - - - - - NNE 22 33 12 18 - - -
07/11:00pm - - - - - NNE 22 32 12 17 - - -
07/10:30pm - - - - - NNE 19 30 10 16 - - -
07/10:00pm - - - - - NNE 19 30 10 16 - - -
07/09:30pm - - - - - NNE 17 28 9 15 - - -
07/09:00pm - - - - - NNE 17 28 9 15 - - -
07/08:30pm - - - - - NE 20 32 11 17 - - -
07/08:00pm - - - - - NE 20 30 11 16 - - -
07/07:30pm - - - - - NNE 22 32 12 17 - - -
07/07:00pm - - - - - NE 19 32 10 17 - - -
07/06:30pm - - - - - NE 20 32 11 17 - - -
07/06:00pm - - - - - NE 17 30 9 16 - - -
07/05:30pm - - - - - NE 17 26 9 14 - - -
07/05:00pm - - - - - ENE 17 22 9 12 - - -
07/04:30pm - - - - - ENE 15 26 8 14 - - -
07/04:00pm - - - - - ENE 15 22 8 12 - - -
07/03:30pm - - - - - ESE 15 20 8 11 - - -
07/03:00pm - - - - - SE 15 22 8 12 - - -
07/02:30pm - - - - - SE 19 24 10 13 - - -
07/02:00pm - - - - - SE 17 24 9 13 - - -
07/01:30pm - - - - - SE 20 28 11 15 - - -
07/01:00pm - - - - - SSE 26 28 14 15 - - -
07/12:30pm - - - - - SSE 24 28 13 15 - - -
07/12:00pm - - - - - SE 17 20 9 11 - - -
07/11:30am - - - - - SSE 19 22 10 12 - - -
07/11:00am - - - - - SE 19 20 10 11 - - -
07/10:30am - - - - - SE 20 26 11 14 - - -
07/10:00am - - - - - SE 19 22 10 12 - - -
07/09:30am - - - - - SSE 22 28 12 15 - - -
07/09:00am - - - - - SSE 24 28 13 15 - - -
07/08:30am - - - - - SSE 24 30 13 16 - - -
07/08:00am - - - - - SSE 26 32 14 17 - - -
07/07:30am - - - - - SSE 30 35 16 19 - - -
07/07:00am - - - - - SSE 30 35 16 19 - - -
07/06:30am - - - - - SSE 32 39 17 21 - - -
07/06:00am - - - - - SE 30 33 16 18 - - -
07/05:30am - - - - - SSE 33 39 18 21 - - -
07/05:00am - - - - - SSE 33 39 18 21 - - -
07/04:30am - - - - - SSE 22 30 12 16 - - -
07/04:00am - - - - - SSE 22 30 12 16 - - -
07/03:30am - - - - - SSE 19 28 10 15 - - -
07/03:00am - - - - - SSE 22 32 12 17 - - -
07/02:30am - - - - - SSE 22 33 12 18 - - -
07/02:00am - - - - - SSE 30 39 16 21 - - -
07/01:37am - - - - - S 30 48 16 26 - - -
07/01:30am - - - - - S 35 48 19 26 - - -
07/01:00am - - - - - S 35 41 19 22 - - -
07/12:30am - - - - - S 39 44 21 24 - - -
07/12:00am - - - - - S 37 44 20 24 - - -
 
Date/Time
EDT
Temp
°C
App
Temp
°C
Dew
Point
°C
Rel
Hum
%
Delta-T
°C
Wind Press
QNH
hPa
Press
MSL
hPa
Rain since
9am
mm
Dir  Spd
km/h
Gust
km/h
Spd
kts
Gust
kts
06/11:30pm - - - - - S 30 37 16 20 - - -
06/11:00pm - - - - - S 20 32 11 17 - - -
06/10:30pm - - - - - S 26 37 14 20 - - -
06/10:00pm - - - - - SW 20 41 11 22 - - -
06/09:30pm - - - - - WNW 22 30 12 16 - - -
06/09:00pm - - - - - NW 26 35 14 19 - - -
06/08:30pm - - - - - NW 28 39 15 21 - - -
06/08:00pm - - - - - NW 22 30 12 16 - - -
06/07:30pm - - - - - NW 17 22 9 12 - - -
06/07:00pm - - - - - NW 15 24 8 13 - - -
06/06:30pm - - - - - NNW 11 15 6 8 - - -
06/06:00pm - - - - - N 2 9 1 5 - - -
06/05:30pm - - - - - CALM 0 0 0 0 - - -
06/05:00pm - - - - - WNW 7 9 4 5 - - -
06/04:30pm - - - - - WNW 7 11 4 6 - - -
06/04:00pm - - - - - SSW 6 9 3 5 - - -
06/03:30pm - - - - - NNW 11 15 6 8 - - -
06/03:00pm - - - - - N 13 17 7 9 - - -
06/02:30pm - - - - - N 9 15 5 8 - - -
06/02:00pm - - - - - N 11 15 6 8 - - -
06/01:30pm - - - - - CALM 0 0 0 0 - - -
06/01:00pm - - - - - SSE 6 11 3 6 - - -
06/12:30pm - - - - - S 13 15 7 8 - - -
06/12:00pm - - - - - SSE 11 17 6 9 - - -
06/11:30am - - - - - S 13 17 7 9 - - -
06/11:00am - - - - - S 17 24 9 13 - - -
06/10:30am - - - - - S 24 26 13 14 - - -
06/10:00am - - - - - S 20 22 11 12 - - -
06/09:30am - - - - - S 17 19 9 10 - - -
06/09:00am - - - - - S 15 22 8 12 - - -
06/08:30am - - - - - S 17 26 9 14 - - -
06/08:00am - - - - - S 19 26 10 14 - - -
06/07:30am - - - - - S 35 39 19 21 - - -
06/07:00am - - - - - S 35 41 19 22 - - -
06/06:30am - - - - - S 33 37 18 20 - - -
06/06:00am - - - - - S 35 39 19 21 - - -
06/05:30am - - - - - S 32 35 17 19 - - -
06/05:00am - - - - - S 33 37 18 20 - - -
06/04:30am - - - - - S 35 39 19 21 - - -
06/04:00am - - - - - S 26 30 14 16 - - -
06/03:30am - - - - - S 22 28 12 15 - - -
06/03:00am - - - - - S 20 30 11 16 - - -
06/02:30am - - - - - S 26 30 14 16 - - -
06/02:00am - - - - - S 24 32 13 17 - - -
06/01:30am - - - - - S 32 37 17 20 - - -
06/01:00am - - - - - S 26 33 14 18 - - -
06/12:30am - - - - - S 33 41 18 22 - - -
06/12:00am - - - - - S 39 50 21 27 - - -
 
Date/Time
EDT
Temp
°C
App
Temp
°C
Dew
Point
°C
Rel
Hum
%
Delta-T
°C
Wind Press
QNH
hPa
Press
MSL
hPa
Rain since
9am
mm
Dir  Spd
km/h
Gust
km/h
Spd
kts
Gust
kts
05/11:30pm - - - - - S 52 61 28 33 - - -
05/11:00pm - - - - - S 65 74 35 40 - - -
05/10:30pm - - - - - S 70 82 38 44 - - -
05/10:00pm - - - - - S 69 80 37 43 - - -
05/09:30pm - - - - - S 61 74 33 40 - - -
05/09:13pm - - - - - S 57 72 31 39 - - -
05/09:00pm - - - - - S 44 63 24 34 - - -
05/08:49pm - - - - - S 41 78 22 42 - - -
05/08:48pm - - - - - S 39 78 21 42 - - -
05/08:44pm - - - - - SSW 35 78 19 42 - - -
05/08:42pm - - - - - SSW 28 65 15 35 - - -
05/08:30pm - - - - - NW 20 26 11 14 - - -
05/08:00pm - - - - - NNW 22 30 12 16 - - -
05/07:30pm - - - - - NNW 24 30 13 16 - - -
05/07:00pm - - - - - NNW 19 24 10 13 - - -
05/06:30pm - - - - - N 15 26 8 14 - - -
05/06:00pm - - - - - NW 17 22 9 12 - - -
05/05:30pm - - - - - N 11 17 6 9 - - -
05/05:10pm - - - - - W 30 72 16 39 - - -
05/05:00pm - - - - - WNW 22 50 12 27 - - -
05/04:59pm - - - - - NW 20 41 11 22 - - -
05/04:30pm - - - - - N 11 20 6 11 - - -
05/04:00pm - - - - - ESE 13 17 7 9 - - -
05/03:30pm - - - - - ESE 9 17 5 9 - - -
05/03:00pm - - - - - N 15 20 8 11 - - -
05/02:30pm - - - - - NNE 13 17 7 9 - - -
05/02:00pm - - - - - NE 17 24 9 13 - - -
05/01:30pm - - - - - NE 15 20 8 11 - - -
05/01:00pm - - - - - SE 6 9 3 5 - - -
05/12:30pm - - - - - N 13 19 7 10 - - -
05/12:00pm - - - - - NNE 13 17 7 9 - - -
05/11:30am - - - - - N 13 20 7 11 - - -
05/11:00am - - - - - NNW 17 24 9 13 - - -
05/10:30am - - - - - NNW 17 26 9 14 - - -
05/10:00am - - - - - NNW 20 30 11 16 - - -
05/09:30am - - - - - NNW 20 33 11 18 - - -
05/09:00am - - - - - NNW 24 30 13 16 - - -
05/08:30am - - - - - N 22 28 12 15 - - -
05/08:00am - - - - - NNE 15 24 8 13 - - -
05/07:30am - - - - - NNE 11 19 6 10 - - -
05/07:00am - - - - - NE 13 20 7 11 - - -
05/06:30am - - - - - NNE 11 17 6 9 - - -
05/06:00am - - - - - NW 13 24 7 13 - - -
05/05:30am - - - - - S 7 9 4 5 - - -
05/05:00am - - - - - S 20 28 11 15 - - -
05/04:30am - - - - - S 19 24 10 13 - - -
05/04:00am - - - - - ENE 11 17 6 9 - - -
05/03:30am - - - - - S 11 13 6 7 - - -

Latest Capital City Observations: Canberra | Sydney | Melbourne | Brisbane | Adelaide | Perth | Hobart | Darwin

Other Formats:

Comma delimited format used in spreadsheet applications
http://www.bom.gov.au/fwo/IDN60901/IDN60901.95752.axf

JavaScript Object Notation format (JSON) in row-major order
http://www.bom.gov.au/fwo/IDN60901/IDN60901.95752.json